Terminal Aerodrome Forecast
Issued by NWS Green Bay, WI

Home | Current Version | Previous Version | Graphics & Text | Print | Product List | Glossary On
Versions: 1 2 3 4 5 6 7 8 9 10 11 12 13 14 15 16 17
000
FTUS43 KGRB 220520
TAFGRB
TAF
KGRB 220520Z 2206/2306 26004KT P6SM SKC
     FM221500 22008KT P6SM SCT030
     FM221900 20012G18KT P6SM SCT040
     FM230100 20008KT P6SM SCT090=

USA.gov is the U.S. government's official web portal to all federal, state and local government web resources and services.